Time;durP1;ratioP1;P1;durP2;ratioP2;P2;SDS_P1;SDS_P2;PMS_P1;PMS_P2;Temp;Humidity;BMP_temperature;BMP_pressure;BME280_temperature;BME280_humidity;BME280_pressure;Samples;Min_cycle;Max_cycle;Signal;HPM_P1;HPM_P2
2023/04/05 00:00:54;;;;;;;1.30;1.30;;;;;;;;;;6289595;28;20292;-82
2023/04/05 00:04:01;;;;;;;1.40;1.40;;;;;;;;;;6285557;28;20297;-82
2023/04/05 00:07:07;;;;;;;1.40;1.40;;;;;;;;;;6286003;28;20289;-83
2023/04/05 00:10:15;;;;;;;3.70;1.33;;;;;;;;;;6285626;28;20293;-83
2023/04/05 00:13:21;;;;;;;1.33;1.30;;;;;;;;;;6284402;28;20292;-82
2023/04/05 00:16:28;;;;;;;1.67;1.43;;;;;;;;;;6285576;28;20293;-82
2023/04/05 00:19:35;;;;;;;2.20;1.50;;;;;;;;;;6285316;28;20503;-83
2023/04/05 00:22:43;;;;;;;2.30;1.47;;;;;;;;;;6285579;28;20296;-81
2023/04/05 00:25:50;;;;;;;3.60;1.20;;;;;;;;;;6284059;28;20322;-82
2023/04/05 00:28:56;;;;;;;1.53;1.40;;;;;;;;;;6284908;28;20601;-83
2023/04/05 00:32:01;;;;;;;2.30;1.40;;;;;;;;;;6285450;28;20296;-81
2023/04/05 00:35:07;;;;;;;1.27;1.20;;;;;;;;;;6283777;28;20594;-82
2023/04/05 00:38:12;;;;;;;1.30;1.30;;;;;;;;;;6283800;28;20292;-82
2023/04/05 00:41:19;;;;;;;1.27;1.27;;;;;;;;;;6284730;28;20463;-83
2023/04/05 00:44:25;;;;;;;1.13;1.13;;;;;;;;;;6283403;28;20299;-82
2023/04/05 00:47:30;;;;;;;1.50;1.40;;;;;;;;;;6284149;28;20300;-82
2023/04/05 00:50:36;;;;;;;1.50;1.40;;;;;;;;;;6282744;28;20294;-82
2023/04/05 00:53:41;;;;;;;0.97;0.97;;;;;;;;;;6287192;28;20262;-82
2023/04/05 00:56:51;;;;;;;1.60;1.60;;;;;;;;;;6287441;28;20297;-82
2023/04/05 00:59:59;;;;;;;1.10;1.10;;;;;;;;;;6288320;28;20293;-82
2023/04/05 01:03:06;;;;;;;4.67;1.13;;;;;;;;;;6285490;28;20309;-82
2023/04/05 01:06:22;;;;;;;1.30;1.30;;;;;;;;;;6284680;28;20302;-82
2023/04/05 01:09:36;;;;;;;2.50;1.63;;;;;;;;;;6283589;28;20304;-82
2023/04/05 01:12:43;;;;;;;1.10;1.10;;;;;;;;;;6284735;28;20289;-83
2023/04/05 01:15:48;;;;;;;5.50;1.40;;;;;;;;;;6284401;28;20297;-82
2023/04/05 01:18:55;;;;;;;1.20;1.10;;;;;;;;;;6284920;28;20309;-83
2023/04/05 01:22:36;;;;;;;1.47;1.47;;;;;;;;;;6282614;28;20301;-83
2023/04/05 01:26:09;;;;;;;1.20;1.20;;;;;;;;;;6277764;28;20302;-83
2023/04/05 01:29:47;;;;;;;1.60;1.37;;;;;;;;;;6284316;28;20322;-82
2023/04/05 01:32:59;;;;;;;1.17;1.10;;;;;;;;;;6282266;28;20266;-81
2023/04/05 01:36:10;;;;;;;1.33;1.30;;;;;;;;;;6284153;28;20324;-82
2023/04/05 01:39:17;;;;;;;3.47;1.33;;;;;;;;;;6258452;28;20304;-82
2023/04/05 01:42:26;;;;;;;4.43;1.50;;;;;;;;;;6259982;28;20292;-83
2023/04/05 01:45:33;;;;;;;2.03;1.30;;;;;;;;;;6259071;28;20299;-81
2023/04/05 01:48:38;;;;;;;1.40;1.40;;;;;;;;;;6261067;28;20300;-83
2023/04/05 01:51:43;;;;;;;2.00;1.27;;;;;;;;;;6264683;28;20304;-82
2023/04/05 01:54:48;;;;;;;1.53;1.43;;;;;;;;;;6270205;28;20288;-81
2023/04/05 01:57:56;;;;;;;4.27;1.43;;;;;;;;;;6265246;28;20308;-83
2023/04/05 02:01:02;;;;;;;1.30;1.30;;;;;;;;;;6262496;28;20293;-81
2023/04/05 02:04:07;;;;;;;1.53;1.30;;;;;;;;;;6262156;28;20469;-81
2023/04/05 02:07:14;;;;;;;1.47;1.40;;;;;;;;;;6264136;28;20298;-82
2023/04/05 02:10:23;;;;;;;2.50;1.40;;;;;;;;;;6267000;28;20301;-82
2023/04/05 02:13:28;;;;;;;1.40;1.30;;;;;;;;;;6287517;28;20300;-82
2023/04/05 02:16:35;;;;;;;1.43;1.20;;;;;;;;;;6288320;28;20304;-83
2023/04/05 02:19:45;;;;;;;1.33;1.30;;;;;;;;;;6287790;28;20473;-82
2023/04/05 02:22:50;;;;;;;1.60;1.30;;;;;;;;;;6288909;28;20301;-82
2023/04/05 02:25:55;;;;;;;1.37;1.27;;;;;;;;;;6288842;28;20588;-81
2023/04/05 02:29:00;;;;;;;1.07;1.03;;;;;;;;;;6289256;28;20294;-84
2023/04/05 02:32:07;;;;;;;2.67;1.30;;;;;;;;;;6289222;28;20298;-81
2023/04/05 02:35:16;;;;;;;1.20;1.20;;;;;;;;;;6289369;28;20322;-83
2023/04/05 02:38:21;;;;;;;1.20;1.20;;;;;;;;;;6289309;28;20538;-83
2023/04/05 02:41:26;;;;;;;1.97;1.33;;;;;;;;;;6290176;28;20291;-82
2023/04/05 02:44:31;;;;;;;2.00;1.60;;;;;;;;;;6290031;28;20519;-83
2023/04/05 02:47:38;;;;;;;3.10;1.40;;;;;;;;;;6289330;28;20287;-83
2023/04/05 02:50:48;;;;;;;1.53;1.50;;;;;;;;;;6290912;28;20296;-82
2023/04/05 02:53:54;;;;;;;5.13;1.60;;;;;;;;;;6290852;28;20300;-82
2023/04/05 02:57:01;;;;;;;1.10;1.10;;;;;;;;;;6300510;28;20294;-82
2023/04/05 03:00:14;;;;;;;2.53;1.30;;;;;;;;;;6302222;28;20254;-81
2023/04/05 03:03:22;;;;;;;2.97;1.30;;;;;;;;;;6301770;28;20230;-82
2023/04/05 03:06:27;;;;;;;1.23;1.23;;;;;;;;;;6302790;28;20251;-81
2023/04/05 03:09:33;;;;;;;3.93;1.50;;;;;;;;;;6302526;28;20288;-83
2023/04/05 03:12:43;;;;;;;1.93;1.40;;;;;;;;;;6300508;28;20284;-81
2023/04/05 03:15:50;;;;;;;1.60;1.23;;;;;;;;;;6300810;28;20299;-82
2023/04/05 03:18:57;;;;;;;4.90;1.40;;;;;;;;;;6300241;28;20283;-83
2023/04/05 03:22:02;;;;;;;3.10;1.20;;;;;;;;;;6300379;28;20298;-81
2023/04/05 03:25:11;;;;;;;1.00;1.00;;;;;;;;;;6300229;28;20325;-81
2023/04/05 03:28:23;;;;;;;2.37;1.40;;;;;;;;;;6290170;28;20295;-83
2023/04/05 03:31:33;;;;;;;1.27;1.20;;;;;;;;;;6285210;28;20292;-82
2023/04/05 03:34:44;;;;;;;2.00;1.80;;;;;;;;;;6285317;28;20284;-81
2023/04/05 03:37:51;;;;;;;4.80;1.90;;;;;;;;;;6285376;28;20297;-83
2023/04/05 03:40:56;;;;;;;1.60;1.20;;;;;;;;;;6285520;28;20312;-81
2023/04/05 03:44:02;;;;;;;2.47;1.90;;;;;;;;;;6284691;28;20297;-81
2023/04/05 03:47:07;;;;;;;2.03;1.30;;;;;;;;;;6268167;28;20470;-82
2023/04/05 03:50:17;;;;;;;1.50;1.40;;;;;;;;;;6285316;28;20300;-82
2023/04/05 03:53:22;;;;;;;1.47;1.20;;;;;;;;;;6284389;28;20308;-81
2023/04/05 03:56:32;;;;;;;1.57;1.47;;;;;;;;;;6288726;28;20299;-83
2023/04/05 03:59:49;;;;;;;1.60;1.40;;;;;;;;;;6284477;28;20277;-82
2023/04/05 04:02:55;;;;;;;1.83;1.73;;;;;;;;;;6284088;28;20573;-82
2023/04/05 04:06:01;;;;;;;1.37;1.37;;;;;;;;;;6285882;28;20306;-81
2023/04/05 04:09:06;;;;;;;4.37;1.63;;;;;;;;;;6283775;28;20465;-81
2023/04/05 04:12:13;;;;;;;1.60;1.60;;;;;;;;;;6283223;28;20299;-83
2023/04/05 04:15:27;;;;;;;1.50;1.40;;;;;;;;;;6284333;28;20296;-82
2023/04/05 04:18:53;;;;;;;2.00;1.50;;;;;;;;;;6285242;28;20288;-83
2023/04/05 04:22:19;;;;;;;1.60;1.60;;;;;;;;;;6284883;28;20296;-82
2023/04/05 04:25:53;;;;;;;1.27;1.27;;;;;;;;;;6284119;28;20608;-83
2023/04/05 04:29:17;;;;;;;6.13;1.50;;;;;;;;;;6284420;28;20304;-82
2023/04/05 04:36:34;;;;;;;2.60;1.50;;;;;;;;;;6274968;28;20291;-83
2023/04/05 04:40:07;;;;;;;2.73;1.80;;;;;;;;;;6285056;28;20294;-82
2023/04/05 04:43:36;;;;;;;1.73;1.53;;;;;;;;;;6284669;28;20300;-83
2023/04/05 04:46:54;;;;;;;1.50;1.50;;;;;;;;;;6283114;28;20387;-82
2023/04/05 04:50:22;;;;;;;1.33;1.33;;;;;;;;;;6281843;28;20325;-81
2023/04/05 04:53:27;;;;;;;1.40;1.40;;;;;;;;;;6282845;28;20301;-82
2023/04/05 04:56:34;;;;;;;1.97;1.53;;;;;;;;;;6284117;28;20454;-82
2023/04/05 04:59:39;;;;;;;4.60;1.70;;;;;;;;;;6284071;28;20276;-81
2023/04/05 05:02:45;;;;;;;2.33;1.60;;;;;;;;;;6282227;28;20301;-81
2023/04/05 05:05:53;;;;;;;3.93;1.83;;;;;;;;;;6283563;28;20280;-83
2023/04/05 05:09:03;;;;;;;2.67;1.70;;;;;;;;;;6282301;28;20497;-82
2023/04/05 05:12:14;;;;;;;3.93;1.73;;;;;;;;;;6282669;28;20318;-80
2023/04/05 05:15:20;;;;;;;2.30;1.50;;;;;;;;;;6283317;28;20298;-82
2023/04/05 05:18:26;;;;;;;2.17;1.60;;;;;;;;;;6284249;28;20293;-83
2023/04/05 05:21:31;;;;;;;1.77;1.77;;;;;;;;;;6282590;28;20613;-81
2023/04/05 05:24:38;;;;;;;2.00;1.70;;;;;;;;;;6286248;28;20294;-84
2023/04/05 05:27:45;;;;;;;2.40;1.60;;;;;;;;;;6288849;28;20315;-80
2023/04/05 05:30:50;;;;;;;2.73;1.73;;;;;;;;;;6289241;28;20301;-81
2023/04/05 05:33:55;;;;;;;1.60;1.60;;;;;;;;;;6288998;28;20316;-82
2023/04/05 05:37:00;;;;;;;2.70;1.83;;;;;;;;;;6289215;28;20302;-83
2023/04/05 05:40:06;;;;;;;1.70;1.60;;;;;;;;;;6289597;28;20289;-82
2023/04/05 05:43:14;;;;;;;1.90;1.50;;;;;;;;;;6288628;28;20481;-83
2023/04/05 05:46:20;;;;;;;3.27;1.60;;;;;;;;;;6288511;28;20324;-81
2023/04/05 05:49:25;;;;;;;2.60;1.50;;;;;;;;;;6287621;28;20297;-79
2023/04/05 05:52:31;;;;;;;2.77;1.47;;;;;;;;;;6288430;28;20329;-76
2023/04/05 05:55:36;;;;;;;2.73;1.60;;;;;;;;;;6288835;28;20292;-79
2023/04/05 05:58:43;;;;;;;2.40;1.50;;;;;;;;;;6288491;28;20301;-79
2023/04/05 06:01:50;;;;;;;3.70;1.57;;;;;;;;;;6287907;28;20302;-78
2023/04/05 06:04:56;;;;;;;4.43;1.60;;;;;;;;;;6290203;28;20294;-77
2023/04/05 06:08:02;;;;;;;1.30;1.30;;;;;;;;;;6287674;28;20309;-78
2023/04/05 06:11:07;;;;;;;1.60;1.50;;;;;;;;;;6287975;28;20452;-78
2023/04/05 06:14:14;;;;;;;1.33;1.33;;;;;;;;;;6287729;28;20309;-80
2023/04/05 06:17:19;;;;;;;4.87;1.77;;;;;;;;;;6287842;28;20301;-81
2023/04/05 06:20:27;;;;;;;7.20;1.40;;;;;;;;;;6288231;28;20294;-80
2023/04/05 06:23:32;;;;;;;2.50;1.47;;;;;;;;;;6287979;28;20606;-79
2023/04/05 06:26:38;;;;;;;3.20;1.60;;;;;;;;;;6286124;28;20306;-80
2023/04/05 06:29:44;;;;;;;1.70;1.60;;;;;;;;;;6288066;28;20262;-78
2023/04/05 06:32:53;;;;;;;1.70;1.60;;;;;;;;;;6287178;28;20302;-80
2023/04/05 06:35:58;;;;;;;1.63;1.53;;;;;;;;;;6287555;28;20289;-79
2023/04/05 06:39:03;;;;;;;1.93;1.57;;;;;;;;;;6286105;28;20365;-80
2023/04/05 06:42:09;;;;;;;1.93;1.67;;;;;;;;;;6285859;28;20291;-80
2023/04/05 06:45:22;;;;;;;1.83;1.60;;;;;;;;;;6286728;28;20298;-79
2023/04/05 06:48:28;;;;;;;4.40;1.80;;;;;;;;;;6286340;28;20309;-78
2023/04/05 06:51:33;;;;;;;2.63;1.40;;;;;;;;;;6286578;28;20294;-81
2023/04/05 06:54:39;;;;;;;5.40;1.63;;;;;;;;;;6287098;28;20297;-79
2023/04/05 06:57:44;;;;;;;2.03;1.50;;;;;;;;;;6286557;28;20295;-80
2023/04/05 07:00:51;;;;;;;4.60;1.53;;;;;;;;;;6286922;28;20588;-81
2023/04/05 07:03:56;;;;;;;4.37;1.60;;;;;;;;;;6286039;28;20298;-79
2023/04/05 07:07:02;;;;;;;4.60;1.47;;;;;;;;;;6286237;28;20319;-79
2023/04/05 07:10:08;;;;;;;3.90;1.60;;;;;;;;;;6287061;28;20297;-79
2023/04/05 07:13:13;;;;;;;1.43;1.33;;;;;;;;;;6287067;28;20300;-80
2023/04/05 07:16:21;;;;;;;4.67;1.77;;;;;;;;;;6286250;28;20301;-80
2023/04/05 07:19:28;;;;;;;1.80;1.70;;;;;;;;;;6287356;28;20308;-81
2023/04/05 07:22:34;;;;;;;3.67;1.60;;;;;;;;;;6286790;28;20582;-79
2023/04/05 07:25:41;;;;;;;1.30;1.30;;;;;;;;;;6286695;28;20405;-79
2023/04/05 07:28:46;;;;;;;3.40;1.53;;;;;;;;;;6272507;28;20489;-79
2023/04/05 07:31:52;;;;;;;1.50;1.40;;;;;;;;;;6261844;28;20289;-78
2023/04/05 07:34:57;;;;;;;1.60;1.47;;;;;;;;;;6261911;28;20297;-79
2023/04/05 07:38:02;;;;;;;1.70;1.50;;;;;;;;;;6260106;28;20552;-80
2023/04/05 07:41:11;;;;;;;1.53;1.13;;;;;;;;;;6277033;28;20296;-79
2023/04/05 07:44:16;;;;;;;2.40;1.80;;;;;;;;;;6261124;28;20292;-80
2023/04/05 07:47:22;;;;;;;1.70;1.60;;;;;;;;;;6260440;28;20298;-80
2023/04/05 07:50:28;;;;;;;2.10;1.30;;;;;;;;;;6261684;28;20404;-80
2023/04/05 07:53:33;;;;;;;1.83;1.73;;;;;;;;;;6260543;28;20293;-78
2023/04/05 07:56:38;;;;;;;3.23;1.67;;;;;;;;;;6256854;28;20288;-80
2023/04/05 07:59:43;;;;;;;1.70;1.43;;;;;;;;;;6235218;28;20273;-79
2023/04/05 08:02:50;;;;;;;2.63;1.40;;;;;;;;;;6236512;28;20300;-79
2023/04/05 08:05:56;;;;;;;1.63;1.53;;;;;;;;;;6237138;28;20306;-80
2023/04/05 08:09:04;;;;;;;4.67;1.60;;;;;;;;;;6242874;28;20289;-80
2023/04/05 08:12:12;;;;;;;1.40;1.40;;;;;;;;;;6261193;28;20292;-79
2023/04/05 08:15:17;;;;;;;2.37;1.40;;;;;;;;;;6261131;28;20292;-80
2023/04/05 08:18:24;;;;;;;5.37;1.40;;;;;;;;;;6260310;28;20304;-80
2023/04/05 08:21:30;;;;;;;7.90;2.00;;;;;;;;;;6260701;28;20296;-79
2023/04/05 08:24:36;;;;;;;1.60;1.50;;;;;;;;;;6260673;28;20293;-78
2023/04/05 08:27:41;;;;;;;1.43;1.40;;;;;;;;;;6260163;28;20299;-80
2023/04/05 08:30:46;;;;;;;11.20;2.23;;;;;;;;;;6260353;28;20376;-79
2023/04/05 08:33:53;;;;;;;13.23;7.07;;;;;;;;;;6260423;28;20294;-79
2023/04/05 08:36:59;;;;;;;2.53;2.33;;;;;;;;;;6258335;28;20295;-80
2023/04/05 08:40:06;;;;;;;2.07;1.80;;;;;;;;;;6260176;28;20627;-80
2023/04/05 08:43:15;;;;;;;2.00;1.60;;;;;;;;;;6257400;28;20299;-80
2023/04/05 08:46:23;;;;;;;3.77;1.73;;;;;;;;;;6259988;28;20313;-80
2023/04/05 08:49:30;;;;;;;1.90;1.80;;;;;;;;;;6260032;28;20295;-81
2023/04/05 08:52:36;;;;;;;5.00;1.60;;;;;;;;;;6258457;28;20469;-80
2023/04/05 08:55:42;;;;;;;5.33;1.60;;;;;;;;;;6260528;28;20497;-79
2023/04/05 08:58:51;;;;;;;3.07;1.80;;;;;;;;;;6259725;28;20306;-80
2023/04/05 09:01:57;;;;;;;2.63;1.70;;;;;;;;;;6259765;28;20299;-79
2023/04/05 09:05:10;;;;;;;5.47;1.90;;;;;;;;;;6260354;28;20306;-78
2023/04/05 09:08:15;;;;;;;3.40;1.73;;;;;;;;;;6258683;28;20302;-80
2023/04/05 09:11:21;;;;;;;1.80;1.70;;;;;;;;;;6259594;28;20285;-80
2023/04/05 09:14:27;;;;;;;4.10;2.20;;;;;;;;;;6259693;28;20303;-79
2023/04/05 09:17:33;;;;;;;1.77;1.77;;;;;;;;;;6259475;28;20322;-79
2023/04/05 09:20:40;;;;;;;5.67;2.00;;;;;;;;;;6259133;28;20275;-81
2023/04/05 09:23:55;;;;;;;9.33;2.30;;;;;;;;;;6259804;28;20506;-79
2023/04/05 09:27:07;;;;;;;1.30;1.30;;;;;;;;;;6258406;28;20290;-79
2023/04/05 09:30:22;;;;;;;1.50;1.37;;;;;;;;;;6259794;28;20293;-81
2023/04/05 09:33:27;;;;;;;5.00;2.13;;;;;;;;;;6258382;28;20291;-79
2023/04/05 09:36:36;;;;;;;6.60;1.80;;;;;;;;;;6259288;28;20293;-79
2023/04/05 09:39:41;;;;;;;1.80;1.47;;;;;;;;;;6259670;28;20302;-79
2023/04/05 09:42:47;;;;;;;3.33;1.80;;;;;;;;;;6259140;28;20299;-78
2023/04/05 09:45:53;;;;;;;1.57;1.53;;;;;;;;;;6260329;28;20291;-78
2023/04/05 09:48:58;;;;;;;2.23;2.03;;;;;;;;;;6260577;28;20300;-80
2023/04/05 09:52:05;;;;;;;1.70;1.60;;;;;;;;;;6260080;28;20326;-80
2023/04/05 09:55:12;;;;;;;3.60;1.70;;;;;;;;;;6259421;28;20283;-79
2023/04/05 09:58:20;;;;;;;2.23;1.63;;;;;;;;;;6258131;28;20300;-78
2023/04/05 10:01:28;;;;;;;2.30;2.10;;;;;;;;;;6258476;28;20300;-80
2023/04/05 10:04:40;;;;;;;3.47;2.30;;;;;;;;;;6259462;28;20304;-79
2023/04/05 10:07:46;;;;;;;2.53;1.73;;;;;;;;;;6258935;28;20302;-79
2023/04/05 10:10:55;;;;;;;3.53;2.40;;;;;;;;;;6262966;28;20297;-81
2023/04/05 10:14:03;;;;;;;4.37;1.60;;;;;;;;;;6264105;28;20289;-79
2023/04/05 10:17:15;;;;;;;2.10;1.90;;;;;;;;;;6262982;28;20296;-80
2023/04/05 10:20:21;;;;;;;2.80;2.03;;;;;;;;;;6263625;28;20319;-80
2023/04/05 10:23:30;;;;;;;2.23;2.07;;;;;;;;;;6262962;28;20306;-82
2023/04/05 10:26:41;;;;;;;3.87;2.00;;;;;;;;;;6287014;28;20316;-80
2023/04/05 10:29:51;;;;;;;4.57;2.07;;;;;;;;;;6264085;28;20286;-79
2023/04/05 10:33:14;;;;;;;2.60;2.40;;;;;;;;;;6274359;28;20285;-80
2023/04/05 10:36:26;;;;;;;1.83;1.77;;;;;;;;;;6262486;28;20302;-78
2023/04/05 10:39:39;;;;;;;2.60;2.50;;;;;;;;;;6262988;28;20536;-79
2023/04/05 10:42:45;;;;;;;4.87;2.90;;;;;;;;;;6262973;28;20300;-79
2023/04/05 10:45:53;;;;;;;1.87;1.80;;;;;;;;;;6262150;28;20294;-81
2023/04/05 10:49:03;;;;;;;1.87;1.87;;;;;;;;;;6262411;28;20292;-82
2023/04/05 10:52:08;;;;;;;1.50;1.40;;;;;;;;;;6262411;28;20485;-80
2023/04/05 10:55:15;;;;;;;2.10;1.73;;;;;;;;;;6262737;28;20417;-81
2023/04/05 10:58:21;;;;;;;4.60;2.00;;;;;;;;;;6260960;28;20601;-80
2023/04/05 11:01:26;;;;;;;2.20;2.10;;;;;;;;;;6261887;28;20297;-80
2023/04/05 11:04:34;;;;;;;3.27;2.27;;;;;;;;;;6262746;28;20301;-80
2023/04/05 11:07:44;;;;;;;1.70;1.60;;;;;;;;;;6262342;28;20299;-82
2023/04/05 11:10:53;;;;;;;1.67;1.67;;;;;;;;;;6262662;28;20289;-80
2023/04/05 11:13:59;;;;;;;1.60;1.60;;;;;;;;;;6261078;28;20301;-82
2023/04/05 11:17:05;;;;;;;1.87;1.77;;;;;;;;;;6262330;28;20294;-81
2023/04/05 11:20:12;;;;;;;3.40;2.10;;;;;;;;;;6262338;28;20288;-79
2023/04/05 11:23:19;;;;;;;2.60;2.43;;;;;;;;;;6262390;28;20299;-80
2023/04/05 11:26:28;;;;;;;2.03;1.80;;;;;;;;;;6262056;28;20292;-80
2023/04/05 11:29:48;;;;;;;1.60;1.60;;;;;;;;;;6261229;28;20275;-80
2023/04/05 11:32:53;;;;;;;2.80;1.90;;;;;;;;;;6261541;28;22300;-82
2023/04/05 11:36:02;;;;;;;1.60;1.50;;;;;;;;;;6262371;28;20312;-83
2023/04/05 11:39:25;;;;;;;2.37;1.90;;;;;;;;;;6261712;28;20299;-81
2023/04/05 11:42:32;;;;;;;3.40;3.10;;;;;;;;;;6261540;28;20304;-80
2023/04/05 11:45:40;;;;;;;4.30;2.50;;;;;;;;;;6262176;28;20296;-80
2023/04/05 11:48:50;;;;;;;2.07;1.90;;;;;;;;;;6261663;28;20295;-80
2023/04/05 11:51:56;;;;;;;2.57;2.13;;;;;;;;;;6261064;28;20309;-81
2023/04/05 11:55:01;;;;;;;4.00;2.10;;;;;;;;;;6260079;28;20597;-80
2023/04/05 11:58:16;;;;;;;2.27;2.17;;;;;;;;;;6260696;28;20291;-80
2023/04/05 12:01:21;;;;;;;1.90;1.80;;;;;;;;;;6261589;28;20468;-81
2023/04/05 12:04:26;;;;;;;3.43;1.80;;;;;;;;;;6261423;28;20292;-80
2023/04/05 12:07:35;;;;;;;1.70;1.60;;;;;;;;;;6260916;28;20303;-81
2023/04/05 12:10:41;;;;;;;1.63;1.63;;;;;;;;;;6261200;28;20478;-82
2023/04/05 12:13:47;;;;;;;1.90;1.90;;;;;;;;;;6264051;28;20587;-80
2023/04/05 12:16:53;;;;;;;1.60;1.60;;;;;;;;;;6264593;28;20290;-80
2023/04/05 12:19:58;;;;;;;2.53;1.57;;;;;;;;;;6259923;28;20304;-80
2023/04/05 12:23:04;;;;;;;1.70;1.63;;;;;;;;;;6260503;28;20295;-80
2023/04/05 12:26:09;;;;;;;2.00;1.90;;;;;;;;;;6260726;28;20299;-80
2023/04/05 12:29:17;;;;;;;1.90;1.80;;;;;;;;;;6260190;28;20302;-82
2023/04/05 12:32:22;;;;;;;3.37;1.90;;;;;;;;;;6259849;28;20309;-82
2023/04/05 12:35:31;;;;;;;1.90;1.80;;;;;;;;;;6260076;28;20294;-81
2023/04/05 12:38:38;;;;;;;1.83;1.73;;;;;;;;;;6259244;28;20313;-80
2023/04/05 12:41:43;;;;;;;1.90;1.80;;;;;;;;;;6258332;28;20293;-82
2023/04/05 12:45:05;;;;;;;1.60;1.60;;;;;;;;;;6260563;28;20264;-81
2023/04/05 12:48:14;;;;;;;1.80;1.70;;;;;;;;;;6259921;28;20302;-81
2023/04/05 12:51:19;;;;;;;1.73;1.73;;;;;;;;;;6258779;28;20531;-80
2023/04/05 12:54:25;;;;;;;1.50;1.50;;;;;;;;;;6259131;28;20302;-83
2023/04/05 12:57:31;;;;;;;2.53;1.80;;;;;;;;;;6260634;28;20293;-81
2023/04/05 13:00:38;;;;;;;1.77;1.77;;;;;;;;;;6260624;28;20295;-81
2023/04/05 13:03:45;;;;;;;2.47;1.80;;;;;;;;;;6258409;28;20307;-81
2023/04/05 13:06:54;;;;;;;1.77;1.67;;;;;;;;;;6260737;28;20544;-82
2023/04/05 13:09:59;;;;;;;1.87;1.50;;;;;;;;;;6260638;28;20279;-82
2023/04/05 13:13:05;;;;;;;8.83;1.67;;;;;;;;;;6259049;28;20378;-82
2023/04/05 13:16:16;;;;;;;5.20;1.60;;;;;;;;;;6260199;28;20292;-80
2023/04/05 13:19:21;;;;;;;1.57;1.50;;;;;;;;;;6259064;28;20588;-81
2023/04/05 13:22:26;;;;;;;2.00;1.90;;;;;;;;;;6260078;28;20295;-82
2023/04/05 13:25:31;;;;;;;1.70;1.70;;;;;;;;;;6260309;28;20294;-81
2023/04/05 13:28:37;;;;;;;2.00;1.90;;;;;;;;;;6260248;28;20298;-81
2023/04/05 13:31:43;;;;;;;1.77;1.67;;;;;;;;;;6259921;28;20311;-80
2023/04/05 13:34:48;;;;;;;1.80;1.70;;;;;;;;;;6259184;28;20299;-80
2023/04/05 13:37:54;;;;;;;4.00;3.60;;;;;;;;;;6259319;28;20311;-79
2023/04/05 13:40:59;;;;;;;23.33;9.20;;;;;;;;;;6258422;28;20294;-81
2023/04/05 13:44:04;;;;;;;3.67;3.47;;;;;;;;;;6259177;28;20480;-79
2023/04/05 13:47:13;;;;;;;2.10;2.10;;;;;;;;;;6263809;28;20302;-81
2023/04/05 13:50:18;;;;;;;2.50;2.30;;;;;;;;;;6264580;28;20294;-82
2023/04/05 13:53:23;;;;;;;3.83;2.43;;;;;;;;;;6262902;28;20300;-80
2023/04/05 13:56:32;;;;;;;1.90;1.90;;;;;;;;;;6264163;28;20303;-80
2023/04/05 13:59:37;;;;;;;2.33;2.13;;;;;;;;;;6263888;28;20268;-81
2023/04/05 14:02:44;;;;;;;2.60;2.47;;;;;;;;;;6266442;28;20303;-81
2023/04/05 14:05:49;;;;;;;2.13;2.07;;;;;;;;;;6267582;28;20275;-76
2023/04/05 14:08:58;;;;;;;2.23;2.13;;;;;;;;;;6264596;28;20288;-75
2023/04/05 14:12:04;;;;;;;1.90;1.90;;;;;;;;;;6267501;28;20303;-80
2023/04/05 14:15:10;;;;;;;1.73;1.70;;;;;;;;;;6269515;28;20299;-81
2023/04/05 14:18:17;;;;;;;1.97;1.90;;;;;;;;;;6266946;28;20300;-78
2023/04/05 14:21:24;;;;;;;1.97;1.87;;;;;;;;;;6266766;28;20392;-80
2023/04/05 14:24:29;;;;;;;2.97;2.30;;;;;;;;;;6268378;28;20343;-80
2023/04/05 14:27:40;;;;;;;2.17;2.07;;;;;;;;;;6266467;28;20318;-79
2023/04/05 14:30:45;;;;;;;2.10;2.00;;;;;;;;;;6265919;28;20288;-81
2023/04/05 14:36:57;;;;;;;4.87;4.47;;;;;;;;;;6399617;27;20301;-81
2023/04/05 14:40:02;;;;;;;3.40;2.43;;;;;;;;;;6385169;27;20479;-79
2023/04/05 14:43:08;;;;;;;2.27;2.27;;;;;;;;;;6384511;27;20295;-80
2023/04/05 14:46:13;;;;;;;2.13;2.03;;;;;;;;;;6385196;27;20295;-80
2023/04/05 14:49:18;;;;;;;2.20;2.10;;;;;;;;;;6365969;28;20292;-80
2023/04/05 14:52:25;;;;;;;2.13;1.97;;;;;;;;;;6378306;27;20308;-80
2023/04/05 14:55:30;;;;;;;4.97;4.53;;;;;;;;;;6383725;27;20580;-80
2023/04/05 14:58:35;;;;;;;3.33;2.30;;;;;;;;;;6382063;27;20296;-80
2023/04/05 15:01:43;;;;;;;2.30;2.20;;;;;;;;;;6381455;27;20290;-78
2023/04/05 15:04:50;;;;;;;2.63;2.00;;;;;;;;;;6382478;27;20296;-78
2023/04/05 15:07:57;;;;;;;2.73;2.63;;;;;;;;;;6381710;27;20297;-78
2023/04/05 15:11:02;;;;;;;2.50;2.40;;;;;;;;;;6381982;27;20284;-78
2023/04/05 15:14:07;;;;;;;2.10;2.00;;;;;;;;;;6379849;28;20426;-78
2023/04/05 15:17:22;;;;;;;2.90;2.40;;;;;;;;;;6381095;27;20292;-79
2023/04/05 15:20:27;;;;;;;2.03;2.00;;;;;;;;;;6381446;27;20357;-79
2023/04/05 15:23:34;;;;;;;2.10;2.00;;;;;;;;;;6380809;27;20536;-78
2023/04/05 15:26:40;;;;;;;2.30;2.20;;;;;;;;;;6379512;27;20288;-79
2023/04/05 15:29:45;;;;;;;5.17;2.13;;;;;;;;;;6380862;27;20274;-78
2023/04/05 15:32:50;;;;;;;4.80;2.77;;;;;;;;;;6380507;27;20425;-78
2023/04/05 15:35:55;;;;;;;3.93;2.53;;;;;;;;;;6380830;27;20315;-77
2023/04/05 15:39:03;;;;;;;2.07;1.97;;;;;;;;;;6380143;27;20288;-78
2023/04/05 15:42:09;;;;;;;2.63;2.47;;;;;;;;;;6380232;27;20304;-79
2023/04/05 15:45:15;;;;;;;2.70;2.47;;;;;;;;;;6380434;27;20290;-77
2023/04/05 15:48:20;;;;;;;2.27;2.17;;;;;;;;;;6362255;27;20291;-78
2023/04/05 15:51:25;;;;;;;2.57;2.37;;;;;;;;;;6363453;28;20296;-77
2023/04/05 15:54:32;;;;;;;2.90;2.80;;;;;;;;;;6362514;28;20300;-79
2023/04/05 15:57:37;;;;;;;2.50;2.40;;;;;;;;;;6362893;28;20296;-77
2023/04/05 16:00:42;;;;;;;3.57;2.93;;;;;;;;;;6363445;27;20289;-79
2023/04/05 16:03:47;;;;;;;4.80;4.50;;;;;;;;;;6361479;28;20290;-80
2023/04/05 16:06:53;;;;;;;2.10;2.10;;;;;;;;;;6362705;27;20296;-80
2023/04/05 16:10:00;;;;;;;4.27;2.87;;;;;;;;;;6363280;28;20288;-78
2023/04/05 16:13:05;;;;;;;2.67;2.57;;;;;;;;;;6362701;28;20308;-78
2023/04/05 16:16:11;;;;;;;2.90;2.70;;;;;;;;;;6361861;28;20305;-81
2023/04/05 16:19:32;;;;;;;4.63;3.30;;;;;;;;;;6362249;28;20572;-80
2023/04/05 16:22:37;;;;;;;3.13;2.87;;;;;;;;;;6363855;28;20296;-80
2023/04/05 16:25:43;;;;;;;3.40;3.30;;;;;;;;;;6363157;28;20290;-79
2023/04/05 16:28:48;;;;;;;3.27;3.07;;;;;;;;;;6362621;27;20284;-79
2023/04/05 16:31:54;;;;;;;3.00;2.80;;;;;;;;;;6361431;28;20293;-79
2023/04/05 16:34:59;;;;;;;3.33;3.03;;;;;;;;;;6362523;28;20307;-79
2023/04/05 16:38:05;;;;;;;3.03;2.90;;;;;;;;;;6362268;28;20298;-80
2023/04/05 16:41:11;;;;;;;5.60;2.80;;;;;;;;;;6362725;28;20354;-80
2023/04/05 16:44:17;;;;;;;3.70;2.67;;;;;;;;;;6360605;28;20293;-79
2023/04/05 16:47:22;;;;;;;3.60;3.30;;;;;;;;;;6362107;27;20334;-79
2023/04/05 16:50:27;;;;;;;3.43;3.03;;;;;;;;;;6362131;28;20295;-81
2023/04/05 16:53:32;;;;;;;3.40;3.20;;;;;;;;;;6361614;28;20306;-81
2023/04/05 16:56:40;;;;;;;11.47;6.67;;;;;;;;;;6360648;27;20293;-80
2023/04/05 16:59:45;;;;;;;7.93;5.10;;;;;;;;;;6361375;28;20266;-80
2023/04/05 17:02:51;;;;;;;4.37;4.07;;;;;;;;;;6360069;28;20287;-79
2023/04/05 17:05:57;;;;;;;6.10;5.60;;;;;;;;;;6363577;28;20466;-78
2023/04/05 17:09:03;;;;;;;2.97;2.87;;;;;;;;;;6362738;28;20314;-79
2023/04/05 17:12:10;;;;;;;3.00;2.63;;;;;;;;;;6362398;28;20293;-80
2023/04/05 17:15:16;;;;;;;3.30;2.60;;;;;;;;;;6363117;27;20540;-80
2023/04/05 17:18:21;;;;;;;2.93;2.83;;;;;;;;;;6362071;28;20306;-79
2023/04/05 17:21:29;;;;;;;3.80;3.57;;;;;;;;;;6362019;27;20395;-79
2023/04/05 17:24:35;;;;;;;2.87;2.67;;;;;;;;;;6362420;28;20282;-81
2023/04/05 17:27:42;;;;;;;2.90;2.73;;;;;;;;;;6360326;28;20294;-79
2023/04/05 17:30:47;;;;;;;5.17;2.97;;;;;;;;;;6360888;28;20290;-80
2023/04/05 17:33:52;;;;;;;3.77;3.43;;;;;;;;;;6361364;28;20295;-78
2023/04/05 17:36:57;;;;;;;2.87;2.63;;;;;;;;;;6360025;28;20299;-80
2023/04/05 17:40:02;;;;;;;3.33;3.13;;;;;;;;;;6362107;28;20302;-80
2023/04/05 17:43:11;;;;;;;3.53;2.70;;;;;;;;;;6361612;28;20459;-79
2023/04/05 17:46:17;;;;;;;2.90;2.70;;;;;;;;;;6361667;28;20293;-79
2023/04/05 17:49:38;;;;;;;2.57;2.43;;;;;;;;;;6362669;27;20328;-79
2023/04/05 17:52:44;;;;;;;2.80;2.67;;;;;;;;;;6361459;28;20295;-80
2023/04/05 17:55:49;;;;;;;3.10;2.90;;;;;;;;;;6362090;28;20323;-79
2023/04/05 17:58:56;;;;;;;3.80;3.60;;;;;;;;;;6361781;28;20294;-79
2023/04/05 18:02:01;;;;;;;3.57;3.30;;;;;;;;;;6361357;28;20461;-80
2023/04/05 18:05:08;;;;;;;3.33;3.10;;;;;;;;;;6360914;28;20479;-79
2023/04/05 18:08:16;;;;;;;3.50;3.30;;;;;;;;;;6361895;28;20296;-79
2023/04/05 18:11:24;;;;;;;3.20;3.10;;;;;;;;;;6359892;28;20286;-78
2023/04/05 18:14:30;;;;;;;3.70;3.40;;;;;;;;;;6368007;27;20293;-79
2023/04/05 18:17:37;;;;;;;3.40;3.30;;;;;;;;;;6360336;28;20298;-81
2023/04/05 18:20:42;;;;;;;4.27;3.27;;;;;;;;;;6361549;28;20286;-80
2023/04/05 18:23:47;;;;;;;3.70;3.50;;;;;;;;;;6361073;28;20286;-80
2023/04/05 18:26:52;;;;;;;4.20;3.90;;;;;;;;;;6363382;28;20467;-78
2023/04/05 18:29:59;;;;;;;3.13;2.93;;;;;;;;;;6360926;28;20301;-80
2023/04/05 18:33:05;;;;;;;3.93;3.60;;;;;;;;;;6360796;28;20280;-79
2023/04/05 18:36:11;;;;;;;3.23;2.93;;;;;;;;;;6360932;28;20292;-80
2023/04/05 18:39:19;;;;;;;3.30;3.20;;;;;;;;;;6359459;28;20441;-80
2023/04/05 18:42:25;;;;;;;3.40;3.30;;;;;;;;;;6362584;28;20301;-80
2023/04/05 18:45:32;;;;;;;3.17;3.07;;;;;;;;;;6364742;28;20297;-79
2023/04/05 18:48:37;;;;;;;3.03;2.97;;;;;;;;;;6361316;28;20293;-79
2023/04/05 18:51:42;;;;;;;2.63;2.53;;;;;;;;;;6361279;28;20288;-80